Terminal Aerodrome Forecast
Issued by NWS Tampa Bay Area, FL

Home | Current Version | Previous Version | Text Only | Print | Product List | Glossary On
Versions: 1 2 3 4 5 6 7 8 9 10 11 12 13 14 15 16
000
FTUS42 KTBW 242300
TAFFMY
TAF
KFMY 242324Z 2500/2524 20007KT P6SM FEW030 SCT250
     FM250200 17002KT P6SM FEW025 SCT250
     FM251500 23007KT P6SM VCTS SCT025CB BKN250
     FM252100 25008KT P6SM SCT035 BKN150=

USA.gov is the U.S. government's official web portal to all federal, state and local government web resources and services.